Time;durP1;ratioP1;P1;durP2;ratioP2;P2;SDS_P1;SDS_P2;PMS_P1;PMS_P2;Temp;Humidity;BMP_temperature;BMP_pressure;BME280_temperature;BME280_humidity;BME280_pressure;Samples;Min_cycle;Max_cycle;Signal;HPM_P1;HPM_P2
2024/01/30 00:01:53;;;;;;;10.97;8.40;;;;;;;7.06;55.03;100140.25;6707054;29;20225;-77
2024/01/30 00:05:14;;;;;;;13.73;9.00;;;;;;;6.96;55.35;100144.84;6707388;29;20247;-78
2024/01/30 00:08:36;;;;;;;9.47;8.37;;;;;;;7.13;55.19;100134.16;6706421;29;20290;-78
2024/01/30 00:11:58;;;;;;;7.57;6.77;;;;;;;7.29;54.58;100133.47;6706949;29;20358;-77
2024/01/30 00:15:19;;;;;;;11.60;7.47;;;;;;;6.86;55.54;100130.66;6707235;29;20296;-78
2024/01/30 00:18:42;;;;;;;10.57;7.90;;;;;;;6.75;55.50;100144.25;6706091;29;20372;-78
2024/01/30 00:22:04;;;;;;;8.73;7.43;;;;;;;6.84;55.35;100130.78;6706855;29;20314;-78
2024/01/30 00:25:25;;;;;;;8.70;7.33;;;;;;;6.87;55.21;100127.84;6706867;29;20212;-78
2024/01/30 00:28:47;;;;;;;9.20;7.83;;;;;;;7.10;55.28;100134.47;6708862;29;20640;-78
2024/01/30 00:32:08;;;;;;;11.63;7.37;;;;;;;7.00;54.91;100131.00;6710873;29;20263;-77
2024/01/30 00:35:31;;;;;;;10.47;7.53;;;;;;;6.96;55.37;100128.78;6706674;29;20265;-78
2024/01/30 00:38:53;;;;;;;9.70;6.90;;;;;;;6.95;55.56;100127.09;6705710;29;20847;-78
2024/01/30 00:42:14;;;;;;;8.17;6.60;;;;;;;7.01;54.81;100131.84;6706200;29;20296;-78
2024/01/30 00:45:36;;;;;;;8.87;6.83;;;;;;;7.08;55.16;100124.88;6706436;29;20361;-77
2024/01/30 00:48:57;;;;;;;9.27;6.93;;;;;;;6.81;55.38;100125.75;6705749;29;20607;-78
2024/01/30 00:52:20;;;;;;;9.60;6.70;;;;;;;6.84;55.92;100129.97;6706036;29;20355;-78
2024/01/30 00:55:41;;;;;;;9.97;7.60;;;;;;;6.66;55.87;100127.22;6705735;29;20262;-78
2024/01/30 00:59:03;;;;;;;7.93;6.67;;;;;;;6.95;55.50;100124.41;6704929;29;20256;-77
2024/01/30 01:02:24;;;;;;;9.67;7.33;;;;;;;6.72;56.23;100142.72;6705646;29;20310;-78
2024/01/30 01:05:46;;;;;;;10.60;6.87;;;;;;;6.92;55.98;100130.91;6705733;29;20243;-78
2024/01/30 01:09:09;;;;;;;9.27;7.83;;;;;;;6.60;56.51;100143.06;6714856;29;20240;-78
2024/01/30 01:12:30;;;;;;;8.53;7.47;;;;;;;6.82;56.64;100129.25;6731471;29;20282;-78
2024/01/30 01:15:52;;;;;;;8.27;6.47;;;;;;;7.15;55.61;100137.53;6730806;29;20303;-79
2024/01/30 01:19:13;;;;;;;6.90;6.30;;;;;;;6.90;55.92;100134.75;6730545;29;20850;-77
2024/01/30 01:22:35;;;;;;;8.87;6.80;;;;;;;6.91;55.34;100125.69;6730995;29;20312;-77
2024/01/30 01:25:59;;;;;;;7.20;5.97;;;;;;;6.96;55.89;100136.81;6708465;29;20206;-78
2024/01/30 01:29:28;;;;;;;7.70;6.27;;;;;;;7.13;55.65;100130.66;6705881;29;20713;-77
2024/01/30 01:32:54;;;;;;;7.57;6.87;;;;;;;7.33;55.12;100135.72;6705459;29;20231;-77
2024/01/30 01:36:16;;;;;;;7.90;6.57;;;;;;;7.11;55.34;100144.19;6704746;29;20240;-78
2024/01/30 01:39:37;;;;;;;8.20;6.43;;;;;;;6.76;56.17;100127.16;6703980;29;20713;-79
2024/01/30 01:43:04;;;;;;;7.13;6.00;;;;;;;6.71;56.60;100133.00;6704579;29;20352;-77
2024/01/30 01:46:27;;;;;;;7.43;5.93;;;;;;;6.99;56.07;100134.69;6703856;29;20230;-78
2024/01/30 01:49:49;;;;;;;8.33;6.07;;;;;;;6.97;56.26;100125.09;6704719;29;20639;-78
2024/01/30 01:53:10;;;;;;;7.27;6.40;;;;;;;7.15;55.58;100126.81;6704656;29;20365;-77
2024/01/30 01:56:32;;;;;;;6.67;6.03;;;;;;;7.19;55.78;100130.88;6703665;29;20359;-78
2024/01/30 01:59:55;;;;;;;8.30;6.57;;;;;;;7.38;54.86;100129.91;6704086;29;20322;-77
2024/01/30 02:03:18;;;;;;;7.57;6.20;;;;;;;7.22;55.94;100129.72;6704138;29;20282;-77
2024/01/30 02:06:39;;;;;;;8.67;6.43;;;;;;;7.17;55.19;100110.56;6703844;29;20743;-78
2024/01/30 02:10:01;;;;;;;8.43;6.73;;;;;;;7.03;55.68;100130.72;6703063;29;20243;-78
2024/01/30 02:13:22;;;;;;;7.37;6.53;;;;;;;7.20;55.67;100139.78;6704104;29;20741;-78
2024/01/30 02:16:45;;;;;;;8.57;6.90;;;;;;;7.13;55.46;100130.66;6703105;29;20663;-78
2024/01/30 02:20:08;;;;;;;8.73;6.60;;;;;;;6.83;56.80;100139.00;6696060;29;20822;-77
2024/01/30 02:23:32;;;;;;;7.70;6.90;;;;;;;6.96;56.16;100137.63;6703808;29;20224;-78
2024/01/30 02:26:53;;;;;;;10.37;6.80;;;;;;;6.99;56.40;100134.69;6703469;29;20256;-77
2024/01/30 02:30:15;;;;;;;7.27;6.50;;;;;;;7.22;55.88;100124.34;6707480;29;20390;-78
2024/01/30 02:33:36;;;;;;;7.37;6.10;;;;;;;6.56;57.95;100121.09;6703976;29;20310;-77
2024/01/30 02:36:58;;;;;;;8.10;6.53;;;;;;;7.17;56.88;100121.28;6702926;29;20306;-77
2024/01/30 02:40:20;;;;;;;8.10;6.37;;;;;;;7.46;55.45;100127.28;6703798;29;20314;-77
2024/01/30 02:43:42;;;;;;;9.50;7.33;;;;;;;7.44;55.38;100122.09;6703646;29;20356;-78
2024/01/30 02:47:04;;;;;;;7.83;6.80;;;;;;;7.36;55.45;100113.13;6710532;29;20626;-78
2024/01/30 02:50:25;;;;;;;10.13;7.23;;;;;;;7.38;55.48;100125.34;6702288;29;20313;-78
2024/01/30 02:53:47;;;;;;;8.67;7.50;;;;;;;7.63;55.11;100123.75;6701139;29;20299;-78
2024/01/30 02:57:09;;;;;;;9.00;7.60;;;;;;;7.64;54.84;100128.97;6702993;29;20347;-78
2024/01/30 03:00:31;;;;;;;9.83;7.87;;;;;;;7.53;54.19;100126.50;6703129;29;20259;-78
2024/01/30 03:03:52;;;;;;;11.53;7.77;;;;;;;7.40;54.84;100123.38;6703129;29;20298;-78
2024/01/30 03:07:14;;;;;;;8.17;7.23;;;;;;;7.33;54.84;100127.69;6702547;29;20602;-78
2024/01/30 03:10:36;;;;;;;10.77;7.57;;;;;;;7.24;55.00;100112.47;6699127;29;20232;-77
2024/01/30 03:13:59;;;;;;;9.60;7.33;;;;;;;7.31;54.88;100123.47;6703240;29;20217;-77
2024/01/30 03:17:20;;;;;;;8.83;7.70;;;;;;;7.05;55.28;100117.97;6702462;29;20308;-77
2024/01/30 03:20:42;;;;;;;8.20;6.70;;;;;;;6.88;55.37;100124.16;6703006;29;20320;-77
2024/01/30 03:24:04;;;;;;;11.07;8.07;;;;;;;6.88;55.38;100126.84;6707651;29;20365;-78
2024/01/30 03:27:25;;;;;;;9.80;7.87;;;;;;;6.71;55.64;100119.59;6699335;29;20348;-77
2024/01/30 03:30:48;;;;;;;9.73;7.50;;;;;;;6.54;55.46;100125.72;6707888;29;20326;-77
2024/01/30 03:34:09;;;;;;;10.17;8.07;;;;;;;6.57;55.93;100121.91;6711273;29;20213;-77
2024/01/30 03:37:31;;;;;;;10.73;8.23;;;;;;;6.70;55.09;100123.25;6732609;29;20748;-78
2024/01/30 03:40:52;;;;;;;9.37;7.70;;;;;;;6.34;55.96;100134.00;6717440;29;20281;-77
2024/01/30 03:44:14;;;;;;;10.00;8.50;;;;;;;6.56;56.17;100129.13;6707358;29;20288;-77
2024/01/30 03:47:37;;;;;;;13.00;8.77;;;;;;;6.39;56.07;100131.72;6706761;29;20353;-77
2024/01/30 03:50:58;;;;;;;12.03;8.27;;;;;;;6.35;56.30;100138.34;6707670;29;20244;-78
2024/01/30 03:54:20;;;;;;;11.53;8.17;;;;;;;6.21;56.58;100133.47;6707309;29;20309;-78
2024/01/30 03:57:41;;;;;;;8.20;7.40;;;;;;;6.28;56.84;100138.09;6706843;29;20306;-78
2024/01/30 04:01:03;;;;;;;10.80;8.67;;;;;;;6.28;56.83;100126.53;6707125;29;20272;-78
2024/01/30 04:04:26;;;;;;;9.40;7.97;;;;;;;6.25;57.39;100143.72;6700608;29;20324;-77
2024/01/30 04:07:48;;;;;;;9.70;7.97;;;;;;;6.38;57.39;100136.22;6681071;29;20389;-78
2024/01/30 04:11:09;;;;;;;8.23;7.37;;;;;;;6.61;56.58;100142.91;6700013;29;20236;-77
2024/01/30 04:14:31;;;;;;;11.87;8.53;;;;;;;6.17;58.07;100146.31;6706502;29;20297;-78
2024/01/30 04:17:52;;;;;;;13.33;8.03;;;;;;;6.51;57.14;100141.25;6705968;29;20218;-78
2024/01/30 04:21:15;;;;;;;8.43;7.47;;;;;;;6.64;56.90;100139.94;6705738;29;20377;-78
2024/01/30 04:24:36;;;;;;;9.60;8.23;;;;;;;6.53;57.13;100144.63;6706885;29;20249;-77
2024/01/30 04:27:58;;;;;;;9.50;7.37;;;;;;;6.67;56.42;100136.13;6706289;29;20363;-78
2024/01/30 04:31:19;;;;;;;9.43;7.70;;;;;;;6.31;56.83;100124.41;6706314;29;20362;-77
2024/01/30 04:34:41;;;;;;;8.90;7.40;;;;;;;6.45;56.56;100129.31;6705337;29;20744;-78
2024/01/30 04:38:04;;;;;;;10.37;7.77;;;;;;;6.05;56.78;100127.88;6706525;29;20358;-78
2024/01/30 04:41:28;;;;;;;10.80;8.07;;;;;;;6.39;57.03;100137.94;6706261;29;20374;-77
2024/01/30 04:44:50;;;;;;;8.83;7.57;;;;;;;6.30;56.80;100132.63;6706028;29;20213;-78
2024/01/30 04:48:11;;;;;;;9.50;8.50;;;;;;;6.26;56.92;100137.38;6705275;29;20649;-78
2024/01/30 04:51:33;;;;;;;11.87;7.50;;;;;;;6.19;57.27;100140.81;6705785;29;20375;-78
2024/01/30 04:54:56;;;;;;;8.60;7.13;;;;;;;5.86;58.00;100133.25;6706154;29;20368;-77
2024/01/30 04:58:17;;;;;;;8.60;7.57;;;;;;;6.15;56.98;100137.59;6704865;29;20306;-77
2024/01/30 05:01:39;;;;;;;8.37;7.57;;;;;;;6.01;56.63;100135.34;6701652;29;20924;-78
2024/01/30 05:05:00;;;;;;;10.77;8.33;;;;;;;6.02;57.66;100130.84;6705345;29;20305;-78
2024/01/30 05:08:22;;;;;;;9.87;7.33;;;;;;;5.45;58.95;100136.22;6705241;29;20297;-77
2024/01/30 05:11:44;;;;;;;11.77;8.27;;;;;;;5.67;59.58;100126.06;6705764;29;20311;-78
2024/01/30 05:15:07;;;;;;;10.60;8.10;;;;;;;6.19;57.78;100127.44;6705992;29;20255;-78
2024/01/30 05:18:29;;;;;;;8.93;7.40;;;;;;;6.16;57.37;100143.75;6714653;29;20232;-77
2024/01/30 05:21:50;;;;;;;8.87;8.03;;;;;;;6.36;57.18;100140.88;6715999;29;20313;-77
2024/01/30 05:25:12;;;;;;;9.50;8.57;;;;;;;5.99;56.98;100139.16;6705591;29;20354;-78
2024/01/30 05:28:36;;;;;;;10.47;8.10;;;;;;;5.99;57.21;100133.78;6707275;29;20258;-78
2024/01/30 05:31:57;;;;;;;8.73;7.80;;;;;;;6.15;57.51;100131.38;6705300;29;20324;-78
2024/01/30 05:35:20;;;;;;;9.90;8.10;;;;;;;6.14;57.25;100151.94;6705133;29;20219;-78
2024/01/30 05:38:42;;;;;;;10.67;8.70;;;;;;;5.69;57.65;100139.31;6711249;29;20231;-77
2024/01/30 05:42:04;;;;;;;9.53;8.20;;;;;;;5.79;57.27;100154.34;6732675;29;20248;-78
2024/01/30 05:45:27;;;;;;;10.03;8.20;;;;;;;5.62;57.45;100141.72;6731981;29;20363;-78
2024/01/30 05:48:49;;;;;;;8.90;7.80;;;;;;;5.32;58.39;100151.69;6724363;29;20397;-78
2024/01/30 05:52:10;;;;;;;9.83;8.43;;;;;;;5.68;59.13;100153.66;6704474;29;20361;-78
2024/01/30 05:55:32;;;;;;;9.27;7.97;;;;;;;6.14;58.12;100153.78;6710725;29;20590;-78
2024/01/30 05:58:53;;;;;;;8.33;7.47;;;;;;;6.21;57.18;100160.25;6730019;29;20248;-78
2024/01/30 06:02:16;;;;;;;9.50;7.90;;;;;;;6.13;56.86;100160.13;6730249;29;20248;-78
2024/01/30 06:05:38;;;;;;;11.97;8.17;;;;;;;6.18;56.91;100156.03;6712108;29;20299;-78
2024/01/30 06:08:59;;;;;;;10.03;8.57;;;;;;;6.02;56.84;100161.13;6703794;29;20239;-78
2024/01/30 06:12:21;;;;;;;12.33;9.60;;;;;;;6.15;57.24;100158.16;6704338;29;20721;-78
2024/01/30 06:15:42;;;;;;;13.23;10.47;;;;;;;6.11;57.42;100154.91;6703286;29;20221;-78
2024/01/30 06:19:05;;;;;;;10.67;9.57;;;;;;;6.40;56.71;100161.03;6711317;29;20327;-78
2024/01/30 06:22:27;;;;;;;10.83;9.03;;;;;;;6.17;56.27;100151.66;6728870;29;20229;-78
2024/01/30 06:25:49;;;;;;;12.60;8.87;;;;;;;6.29;57.31;100157.69;6729466;29;20210;-78
2024/01/30 06:29:10;;;;;;;12.90;9.00;;;;;;;6.28;56.72;100137.25;6703458;29;20368;-76
2024/01/30 06:32:34;;;;;;;9.83;8.40;;;;;;;6.25;56.81;100151.78;6703118;29;20325;-75
2024/01/30 06:35:57;;;;;;;11.23;8.50;;;;;;;6.21;57.12;100152.22;6703351;29;20216;-76
2024/01/30 06:39:18;;;;;;;9.20;7.50;;;;;;;6.21;57.47;100153.06;6702557;29;20373;-76
2024/01/30 06:42:40;;;;;;;10.53;8.20;;;;;;;6.41;57.19;100164.56;6702566;29;20608;-77
2024/01/30 06:46:01;;;;;;;13.07;8.97;;;;;;;6.53;56.89;100150.84;6703031;29;20211;-76
2024/01/30 06:49:23;;;;;;;12.70;8.63;;;;;;;6.17;56.69;100158.84;6702441;29;20322;-76
2024/01/30 06:52:46;;;;;;;11.67;8.80;;;;;;;6.32;56.70;100157.41;6702737;29;20231;-77
2024/01/30 06:56:07;;;;;;;14.97;9.97;;;;;;;6.05;56.89;100163.53;6705286;29;20299;-76
2024/01/30 06:59:29;;;;;;;13.73;8.83;;;;;;;6.10;57.62;100163.94;6706153;29;20773;-76
2024/01/30 07:02:50;;;;;;;13.33;9.13;;;;;;;6.31;56.61;100153.03;6701288;29;20298;-76
2024/01/30 07:06:12;;;;;;;13.00;8.70;;;;;;;6.39;56.89;100161.19;6711846;29;20277;-77
2024/01/30 07:09:36;;;;;;;10.53;8.93;;;;;;;6.50;56.75;100169.03;6711267;29;20258;-77
2024/01/30 07:12:57;;;;;;;13.63;9.30;;;;;;;6.09;57.87;100166.75;6711922;29;20573;-76
2024/01/30 07:16:19;;;;;;;10.03;8.63;;;;;;;6.25;57.18;100172.38;6711493;29;20249;-77
2024/01/30 07:19:40;;;;;;;11.63;8.97;;;;;;;5.99;58.20;100163.25;6706346;29;20332;-77
2024/01/30 07:23:03;;;;;;;13.70;9.27;;;;;;;6.19;57.74;100179.13;6711180;29;20211;-76
2024/01/30 07:26:26;;;;;;;10.30;9.17;;;;;;;6.33;57.67;100184.06;6703030;29;20234;-77
2024/01/30 07:29:47;;;;;;;13.57;8.87;;;;;;;6.52;57.26;100183.13;6711449;29;20697;-77
2024/01/30 07:33:09;;;;;;;11.73;9.57;;;;;;;6.62;56.85;100179.44;6711051;29;20319;-78
2024/01/30 07:36:30;;;;;;;10.20;8.87;;;;;;;6.55;56.80;100180.19;6710280;29;20212;-78
2024/01/30 07:39:52;;;;;;;12.10;10.03;;;;;;;6.00;57.27;100173.81;6711133;29;20361;-77
2024/01/30 07:43:15;;;;;;;10.03;9.03;;;;;;;6.22;57.59;100178.84;6711086;29;20368;-77
2024/01/30 07:46:36;;;;;;;10.03;8.63;;;;;;;6.51;57.46;100182.31;6710644;29;20215;-78
2024/01/30 07:49:58;;;;;;;11.00;9.23;;;;;;;6.65;56.99;100178.28;6711162;29;20330;-78
2024/01/30 07:53:20;;;;;;;11.23;8.67;;;;;;;6.34;58.42;100172.34;6709947;29;20364;-78
2024/01/30 07:56:41;;;;;;;11.03;9.37;;;;;;;6.53;57.18;100168.75;6710394;29;20253;-77
2024/01/30 08:00:07;;;;;;;12.00;9.50;;;;;;;6.66;57.43;100185.34;6710271;29;20260;-78
2024/01/30 08:03:28;;;;;;;12.67;10.23;;;;;;;6.14;58.62;100176.03;6711019;29;20204;-78
2024/01/30 08:06:50;;;;;;;16.43;11.40;;;;;;;6.84;57.21;100176.38;6714367;29;20297;-78
2024/01/30 08:10:12;;;;;;;14.03;10.30;;;;;;;7.12;56.22;100191.47;6714530;29;20372;-79
2024/01/30 08:13:34;;;;;;;14.83;10.77;;;;;;;7.13;56.49;100182.44;6709127;29;20250;-77
2024/01/30 08:16:57;;;;;;;13.50;11.00;;;;;;;7.46;55.67;100180.94;6707949;29;20356;-78
2024/01/30 08:20:18;;;;;;;16.30;10.70;;;;;;;7.77;55.14;100174.22;6708290;29;20297;-79
2024/01/30 08:23:40;;;;;;;16.27;10.87;;;;;;;7.71;55.27;100170.28;6708290;29;20306;-79
2024/01/30 08:27:02;;;;;;;20.67;13.53;;;;;;;7.78;54.99;100171.38;6706843;29;20564;-79
2024/01/30 08:30:23;;;;;;;21.93;13.03;;;;;;;7.84;55.04;100167.22;6707617;29;20237;-79
2024/01/30 08:33:46;;;;;;;18.30;11.33;;;;;;;7.91;54.40;100171.81;6707723;29;20266;-79
2024/01/30 08:37:08;;;;;;;16.07;11.80;;;;;;;7.95;54.35;100175.06;6707031;29;20280;-79
2024/01/30 08:40:30;;;;;;;17.30;11.00;;;;;;;8.55;53.96;100174.16;6715272;29;20296;-79
2024/01/30 08:43:53;;;;;;;18.03;11.00;;;;;;;8.83;53.60;100164.91;6707079;29;20436;-79
2024/01/30 08:47:16;;;;;;;16.50;11.60;;;;;;;10.32;49.58;100159.13;6706598;29;20306;-79
2024/01/30 08:50:39;;;;;;;11.60;9.47;;;;;;;11.48;46.92;100161.91;6706543;29;20232;-79
2024/01/30 08:54:01;;;;;;;18.33;10.47;;;;;;;12.03;45.07;100165.28;6682738;29;20214;-79
2024/01/30 08:57:22;;;;;;;11.90;9.27;;;;;;;12.42;44.09;100158.66;6707037;29;20209;-79
2024/01/30 09:00:44;;;;;;;10.43;8.47;;;;;;;13.79;40.99;100153.22;6712235;29;20259;-79
2024/01/30 09:04:05;;;;;;;13.63;10.03;;;;;;;14.08;40.20;100157.66;6708694;29;20237;-80
2024/01/30 09:07:28;;;;;;;13.17;10.53;;;;;;;14.20;40.29;100153.41;6707364;29;20201;-78
2024/01/30 09:10:50;;;;;;;23.27;18.93;;;;;;;13.93;41.23;100165.84;6707289;29;20356;-79
2024/01/30 09:14:12;;;;;;;14.97;11.23;;;;;;;13.04;42.08;100170.03;6707043;29;20202;-80
2024/01/30 09:17:34;;;;;;;11.97;9.13;;;;;;;13.09;42.31;100181.13;6706136;29;20296;-78
2024/01/30 09:20:55;;;;;;;14.43;12.97;;;;;;;12.40;44.14;100167.97;6706223;29;20236;-79
2024/01/30 09:24:18;;;;;;;14.83;12.03;;;;;;;11.83;45.37;100161.34;6707518;29;20198;-80
2024/01/30 09:27:40;;;;;;;15.87;11.87;;;;;;;11.48;46.50;100172.69;6706611;29;20293;-79
2024/01/30 09:31:01;;;;;;;55.63;40.67;;;;;;;11.30;47.47;100153.22;6709414;29;20228;-80
2024/01/30 09:34:24;;;;;;;106.67;84.50;;;;;;;11.61;47.12;100184.66;6706382;29;20221;-78
2024/01/30 09:37:45;;;;;;;43.00;30.63;;;;;;;11.34;47.55;100176.16;6705613;29;20265;-79
2024/01/30 09:41:10;;;;;;;23.57;17.03;;;;;;;11.60;47.41;100168.59;6706904;29;20240;-79
2024/01/30 09:44:32;;;;;;;16.60;12.87;;;;;;;11.72;46.90;100176.13;6706045;29;20223;-79
2024/01/30 09:47:54;;;;;;;18.23;14.03;;;;;;;11.64;47.12;100186.97;6705758;29;20213;-79
2024/01/30 09:51:16;;;;;;;14.43;11.00;;;;;;;12.29;45.52;100185.50;6704839;29;20898;-79
2024/01/30 09:54:39;;;;;;;15.60;11.57;;;;;;;12.59;45.44;100181.81;6703565;29;20213;-79
2024/01/30 09:58:02;;;;;;;13.60;11.00;;;;;;;12.65;45.23;100178.38;6706722;29;20309;-79
2024/01/30 10:01:23;;;;;;;12.87;11.50;;;;;;;12.58;45.72;100182.81;6707093;29;20757;-79
2024/01/30 10:04:45;;;;;;;12.63;10.97;;;;;;;12.83;44.90;100175.28;6706040;29;20352;-79
2024/01/30 10:08:08;;;;;;;14.33;11.63;;;;;;;12.85;44.56;100176.78;6705165;29;20300;-79
2024/01/30 10:11:29;;;;;;;16.10;12.50;;;;;;;12.87;44.98;100171.19;6705332;29;20241;-78
2024/01/30 10:14:52;;;;;;;16.97;14.20;;;;;;;13.33;43.77;100164.56;6705768;29;20264;-78
2024/01/30 10:18:14;;;;;;;23.13;19.67;;;;;;;13.25;44.40;100172.78;6700508;29;20209;-79
2024/01/30 10:21:35;;;;;;;22.83;15.47;;;;;;;12.76;45.17;100167.06;6705008;29;20350;-79
2024/01/30 10:24:57;;;;;;;12.23;9.37;;;;;;;13.55;43.41;100166.28;6703718;29;20206;-78
2024/01/30 10:28:19;;;;;;;11.70;9.23;;;;;;;13.65;43.80;100167.66;6704022;29;20361;-80
2024/01/30 10:31:41;;;;;;;13.67;10.13;;;;;;;13.66;44.04;100168.47;6689559;29;20229;-79
2024/01/30 10:35:03;;;;;;;13.00;8.60;;;;;;;13.65;43.22;100158.69;6699877;29;20298;-80
2024/01/30 10:38:27;;;;;;;13.13;8.83;;;;;;;13.26;44.53;100150.94;6703752;29;20220;-79
2024/01/30 10:41:49;;;;;;;11.90;9.20;;;;;;;13.81;44.44;100164.69;6706405;29;20295;-82
2024/01/30 10:45:12;;;;;;;11.23;8.97;;;;;;;13.88;43.85;100159.34;6704656;29;20200;-81
2024/01/30 10:48:39;;;;;;;13.30;9.07;;;;;;;14.13;42.86;100152.47;6705810;29;20318;-81
2024/01/30 10:52:02;;;;;;;13.03;9.10;;;;;;;14.54;42.48;100151.63;6706698;29;20217;-80
2024/01/30 10:55:24;;;;;;;14.07;10.63;;;;;;;14.49;43.04;100153.22;6706654;29;20395;-80
2024/01/30 10:58:46;;;;;;;12.43;9.23;;;;;;;14.51;42.62;100148.47;6705287;29;20233;-78
2024/01/30 11:02:07;;;;;;;10.53;8.43;;;;;;;14.64;42.65;100140.41;6701421;29;20658;-80
2024/01/30 11:05:30;;;;;;;12.20;8.73;;;;;;;14.66;41.82;100133.75;6694443;29;20630;-81
2024/01/30 11:09:02;;;;;;;11.10;8.97;;;;;;;14.89;42.20;100137.03;6701363;29;20345;-81
2024/01/30 11:12:24;;;;;;;10.87;8.33;;;;;;;15.30;41.08;100142.44;6706020;29;20229;-80
2024/01/30 11:15:48;;;;;;;13.30;8.43;;;;;;;14.96;41.75;100143.31;6705761;29;20398;-80
2024/01/30 11:19:12;;;;;;;14.50;8.43;;;;;;;14.66;42.33;100132.91;6704813;29;20771;-81
2024/01/30 11:22:35;;;;;;;15.53;8.40;;;;;;;15.02;42.49;100130.81;6705311;29;20306;-81
2024/01/30 11:25:57;;;;;;;10.97;8.37;;;;;;;15.03;42.08;100136.03;6698229;29;20213;-79
2024/01/30 11:29:19;;;;;;;10.43;7.73;;;;;;;15.21;41.97;100133.63;6705842;29;20261;-80
2024/01/30 11:32:40;;;;;;;13.83;9.30;;;;;;;15.27;42.00;100123.84;6706039;29;20234;-80
2024/01/30 11:36:02;;;;;;;11.97;8.63;;;;;;;15.47;42.31;100120.19;6705648;29;20799;-81
2024/01/30 11:39:26;;;;;;;13.27;8.97;;;;;;;15.60;41.97;100119.34;6705015;29;20231;-80
2024/01/30 11:42:48;;;;;;;12.13;7.67;;;;;;;15.70;41.71;100123.34;6721266;29;20217;-79
2024/01/30 11:46:10;;;;;;;11.20;8.37;;;;;;;16.01;41.58;100120.06;6710991;29;20740;-80
2024/01/30 11:49:31;;;;;;;9.97;5.83;;;;;;;15.87;40.24;100119.19;6710448;29;20226;-79
2024/01/30 11:52:53;;;;;;;18.13;12.37;;;;;;;16.34;40.39;100110.03;6711456;29;20243;-79
2024/01/30 11:56:16;;;;;;;15.70;9.97;;;;;;;16.27;39.62;100104.56;6710713;29;20243;-79
2024/01/30 11:59:38;;;;;;;19.03;9.67;;;;;;;16.39;39.69;100080.31;6704264;29;20285;-79
2024/01/30 12:03:00;;;;;;;7.13;4.60;;;;;;;16.70;37.12;100094.91;6712196;29;20290;-81
2024/01/30 12:06:22;;;;;;;9.23;4.93;;;;;;;16.96;36.51;100092.13;6712575;29;20231;-80
2024/01/30 12:09:43;;;;;;;6.27;4.53;;;;;;;16.68;36.10;100094.28;6710620;29;20682;-80
2024/01/30 12:13:06;;;;;;;4.57;4.13;;;;;;;17.03;35.64;100083.91;6711715;29;20255;-80
2024/01/30 12:16:28;;;;;;;9.70;6.63;;;;;;;17.31;36.17;100085.28;6710552;29;20684;-79
2024/01/30 12:19:49;;;;;;;8.27;6.10;;;;;;;17.22;36.93;100085.75;6711681;29;20724;-81
2024/01/30 12:23:13;;;;;;;6.80;4.30;;;;;;;17.15;36.46;100074.03;6709501;29;20359;-81
2024/01/30 12:26:34;;;;;;;5.83;4.73;;;;;;;16.94;35.79;100066.13;6710820;29;20344;-80
2024/01/30 12:29:58;;;;;;;5.37;4.00;;;;;;;17.33;35.40;100064.06;6711088;29;20240;-80
2024/01/30 12:33:20;;;;;;;7.30;5.30;;;;;;;17.34;35.86;100068.47;6711021;29;20237;-80
2024/01/30 12:36:41;;;;;;;4.93;4.40;;;;;;;17.43;35.19;100064.47;6709818;29;20216;-80
2024/01/30 12:40:03;;;;;;;7.63;4.50;;;;;;;17.40;35.27;100055.91;6710452;29;20287;-79
2024/01/30 12:43:26;;;;;;;8.70;4.50;;;;;;;17.43;35.10;100056.28;6714605;29;20691;-80
2024/01/30 12:46:49;;;;;;;6.50;5.13;;;;;;;17.38;35.35;100060.72;6716055;29;20209;-80
2024/01/30 12:50:12;;;;;;;6.53;5.00;;;;;;;17.47;35.74;100059.41;6710407;29;20304;-79
2024/01/30 12:53:33;;;;;;;6.53;5.50;;;;;;;17.58;36.05;100056.81;6708339;29;20288;-81
2024/01/30 12:56:56;;;;;;;9.07;5.63;;;;;;;17.69;36.53;100063.47;6721159;29;20260;-81
2024/01/30 13:00:17;;;;;;;18.87;10.77;;;;;;;17.56;36.93;100061.66;6715663;29;20242;-81
2024/01/30 13:03:40;;;;;;;5.50;4.47;;;;;;;17.60;35.99;100062.06;6705937;29;20565;-80
2024/01/30 13:07:02;;;;;;;4.57;3.90;;;;;;;17.71;35.33;100066.81;6706855;29;20222;-80
2024/01/30 13:10:23;;;;;;;4.20;3.80;;;;;;;17.79;34.50;100072.84;6707231;29;20231;-81
2024/01/30 13:13:45;;;;;;;4.67;3.53;;;;;;;17.69;33.89;100058.84;6707273;29;20230;-80
2024/01/30 13:17:06;;;;;;;6.07;3.80;;;;;;;17.99;33.77;100059.06;6706783;29;20758;-80
2024/01/30 13:20:29;;;;;;;6.60;4.20;;;;;;;18.01;34.33;100065.97;6710584;29;20236;-80
2024/01/30 13:23:53;;;;;;;4.33;3.93;;;;;;;18.19;34.63;100070.63;6706855;29;20307;-81
2024/01/30 13:27:14;;;;;;;5.57;4.43;;;;;;;17.99;35.63;100067.25;6706879;29;20250;-80
2024/01/30 13:30:36;;;;;;;6.20;4.70;;;;;;;18.18;34.74;100053.44;6707013;29;20232;-80
2024/01/30 13:33:57;;;;;;;7.23;5.30;;;;;;;18.26;35.28;100063.22;6707809;29;20260;-81
2024/01/30 13:37:20;;;;;;;9.53;4.93;;;;;;;18.38;34.07;100053.25;6706492;29;20625;-81
2024/01/30 13:40:42;;;;;;;5.57;3.73;;;;;;;18.31;33.23;100061.53;6708019;29;20407;-80
2024/01/30 13:44:04;;;;;;;4.07;3.70;;;;;;;18.17;32.67;100059.09;6705404;29;20213;-79
2024/01/30 13:47:25;;;;;;;5.00;3.90;;;;;;;18.33;33.12;100066.78;6704223;29;20217;-79
2024/01/30 13:50:47;;;;;;;5.67;4.10;;;;;;;18.38;33.38;100069.63;6700444;29;20233;-80
2024/01/30 13:54:10;;;;;;;6.90;4.13;;;;;;;18.27;34.09;100064.91;6703027;29;20244;-79
2024/01/30 13:57:34;;;;;;;4.70;4.20;;;;;;;18.29;33.88;100073.69;6704792;29;20308;-80
2024/01/30 14:00:56;;;;;;;4.47;4.03;;;;;;;18.31;32.56;100066.09;6698584;29;20255;-80
2024/01/30 14:04:17;;;;;;;9.90;6.40;;;;;;;18.20;35.22;100061.38;6702640;29;20249;-79
2024/01/30 14:07:40;;;;;;;10.90;7.30;;;;;;;18.26;34.97;100055.88;6703500;29;20811;-80
2024/01/30 14:11:03;;;;;;;14.40;9.90;;;;;;;18.21;35.41;100058.44;6722514;29;20235;-80
2024/01/30 14:14:24;;;;;;;14.17;9.63;;;;;;;18.14;35.52;100052.19;6728807;29;20231;-80
2024/01/30 14:17:48;;;;;;;13.57;8.90;;;;;;;18.13;35.41;100069.63;6724595;29;20304;-80
2024/01/30 14:21:09;;;;;;;11.83;8.33;;;;;;;18.07;34.47;100051.44;6704192;29;20293;-80
2024/01/30 14:24:31;;;;;;;9.80;5.83;;;;;;;18.09;35.14;100060.22;6704403;29;20264;-80
2024/01/30 14:27:54;;;;;;;17.23;14.60;;;;;;;17.96;35.55;100059.47;6703908;29;20261;-79
2024/01/30 14:31:16;;;;;;;9.10;5.50;;;;;;;17.81;35.50;100051.63;6704527;29;20239;-79
2024/01/30 14:34:38;;;;;;;7.83;6.13;;;;;;;17.70;35.78;100060.50;6703464;29;20229;-80
2024/01/30 14:38:01;;;;;;;9.30;6.03;;;;;;;17.62;36.94;100068.13;6703589;29;20348;-79
2024/01/30 14:41:22;;;;;;;9.00;5.97;;;;;;;17.52;36.77;100065.06;6703454;29;20233;-80
2024/01/30 14:44:45;;;;;;;9.13;6.20;;;;;;;17.48;37.20;100066.53;6711620;29;20217;-79
2024/01/30 14:48:08;;;;;;;21.00;13.43;;;;;;;17.50;38.86;100058.97;6703952;29;20299;-80
2024/01/30 14:51:30;;;;;;;16.53;11.10;;;;;;;17.43;39.19;100059.03;6704446;29;20208;-80
2024/01/30 14:54:51;;;;;;;15.90;9.43;;;;;;;17.44;39.72;100066.13;6704157;29;20242;-79
2024/01/30 14:58:13;;;;;;;13.77;11.20;;;;;;;17.37;40.11;100067.19;6706814;29;20299;-80
2024/01/30 15:01:36;;;;;;;12.97;10.00;;;;;;;17.20;40.29;100083.22;6702476;29;20756;-80
2024/01/30 15:04:57;;;;;;;18.93;10.07;;;;;;;16.86;40.97;100083.56;6713952;29;20351;-80
2024/01/30 15:08:19;;;;;;;13.47;9.03;;;;;;;16.68;41.58;100093.47;6730273;29;20230;-82
2024/01/30 15:11:40;;;;;;;20.10;12.07;;;;;;;16.70;41.20;100088.63;6726476;29;20312;-80
2024/01/30 15:15:02;;;;;;;16.43;11.43;;;;;;;16.84;40.67;100090.25;6708695;29;20233;-81
2024/01/30 15:18:25;;;;;;;18.17;11.50;;;;;;;16.46;41.57;100106.47;6706258;29;20270;-79
2024/01/30 15:21:46;;;;;;;14.77;10.60;;;;;;;16.57;40.98;100105.84;6706416;29;22126;-79
2024/01/30 15:25:08;;;;;;;17.93;11.33;;;;;;;16.20;41.87;100111.06;6707392;29;20221;-79
2024/01/30 15:28:37;;;;;;;16.37;11.00;;;;;;;16.12;41.56;100131.19;6708373;29;20313;-80
2024/01/30 15:31:58;;;;;;;19.27;11.50;;;;;;;16.04;41.64;100115.03;6708537;29;20218;-80
2024/01/30 15:35:21;;;;;;;22.13;12.27;;;;;;;15.64;42.42;100131.50;6700341;29;20367;-80
2024/01/30 15:38:43;;;;;;;22.23;13.30;;;;;;;15.81;42.23;100141.78;6709529;29;20243;-82